Etusivu
METAR-TAF:

METAR-TAF

Lentoasemat :

Bloomington, Indiana, Yhdysvallat

Leveyspiiri: 39-08-35N, Pituuspiiri: 086-37-00W, korkeus merenpinnasta: 257 m

Tämänhetkinen sää

Tämä raportti tehtiin 17 minuuttia sitten, kello 16.53 UTC
Tuuli 7 kn lounaasta
Lämpötila 6°C
Kosteus 31%
Ilmanpaine 1029 hPa
Näkyvyys: 16.1 km
selkeää

METAR: KBMG 221653Z 23007KT 10SM CLR 06/M10 A3038 RMK AO2 SLP293 T00561100

Aika: 12:10 (17:10 UTC)

Sääennuste

Tämä raportti tehtiin 5 tuntia ja 47 minuuttia sitten, kello 11.23 UTC
Ennuste voimassa 22. päivästä klo 12 UTC - 23. päivään klo 12 UTC
Tuuli 8 kn lounaasta
Näkyvyys: 10 km
selkeää
From 22. päivästä klo 2300 UTC
Tuuli 7 kn etelästä/lounaasta
Näkyvyys: 10 km
selkeää

TAF: KBMG 221123Z 2212/2312 23008KT P6SM SKC FM222300 20007KT P6SM SKC AMD LTD TO CLD VIS AND WIND TIL 221400

Säähavainnot ja -ennusteet yli 4000 lentoasemalta (METAR- ja TAF-raportit).

Käytössä olevat sääasemat on merkitty karttaan keltaisilla ja punaisilla pisteillä.

Aseta hiiri pisteen päälle nähdäksesi sääaseman nimen.

Klikkaa sitten nähdäksesi säähavainnot ja -ennusteet.

Kartan vaihtaminen: klikkaa mustalla rastilla varustettuja vihreitä pisteitä, niin voit zoomata sisään; viivalla varustettua vihreää pistettä, niin voit zoomata ulos tai vihreitä nuolia, niin pääset viereisille kartoille.


METAR-TAF: